Time;durP1;ratioP1;P1;durP2;ratioP2;P2;SDS_P1;SDS_P2;PMS_P1;PMS_P2;Temp;Humidity;BMP_temperature;BMP_pressure;BME280_temperature;BME280_humidity;BME280_pressure;Samples;Min_cycle;Max_cycle;Signal;HPM_P1;HPM_P2
2022/06/15 00:00:37;;;;;;;3.22;2.50;;;;;;;17.29;69.47;96631.34;5078029;28;20305;-48
2022/06/15 00:03:04;;;;;;;2.55;2.35;;;;;;;17.24;70.01;96636.44;5063631;28;20202;-49
2022/06/15 00:05:32;;;;;;;2.83;2.55;;;;;;;17.16;71.44;96636.50;5076621;28;20213;-49
2022/06/15 00:07:59;;;;;;;4.78;2.63;;;;;;;17.25;70.06;96632.75;5076374;28;20213;-49
2022/06/15 00:10:25;;;;;;;3.05;2.75;;;;;;;17.16;71.77;96639.19;5076196;28;20302;-50
2022/06/15 00:12:56;;;;;;;3.15;2.58;;;;;;;17.14;70.85;96641.22;5075693;28;20206;-50
2022/06/15 00:15:22;;;;;;;2.65;2.45;;;;;;;17.10;71.78;96634.59;5076530;28;20206;-49
2022/06/15 00:17:49;;;;;;;2.58;2.38;;;;;;;17.11;71.98;96626.38;5076089;28;20213;-49
2022/06/15 00:20:16;;;;;;;2.72;2.40;;;;;;;17.14;70.51;96630.53;5049620;28;20204;-49
2022/06/15 00:22:44;;;;;;;2.45;2.20;;;;;;;17.15;69.72;96626.84;5056213;28;20587;-49
2022/06/15 00:25:13;;;;;;;4.55;2.55;;;;;;;17.02;72.32;96632.00;5056214;28;20203;-49
2022/06/15 00:27:41;;;;;;;2.80;2.50;;;;;;;17.01;72.32;96627.66;5056458;28;20219;-50
2022/06/15 00:30:09;;;;;;;2.20;2.10;;;;;;;17.04;71.25;96630.78;5056384;28;20275;-50
2022/06/15 00:32:35;;;;;;;2.60;2.40;;;;;;;17.09;69.92;96624.91;5056301;28;20265;-49
2022/06/15 00:35:02;;;;;;;3.70;2.65;;;;;;;16.91;71.41;96634.09;5055937;28;20686;-50
2022/06/15 00:37:28;;;;;;;2.65;2.45;;;;;;;16.87;72.70;96640.81;5056082;28;20297;-50
2022/06/15 00:39:56;;;;;;;4.18;2.88;;;;;;;16.79;73.51;96638.22;5055996;28;20309;-49
2022/06/15 00:42:23;;;;;;;2.65;2.45;;;;;;;16.81;73.11;96636.22;5055960;28;20203;-50
2022/06/15 00:44:50;;;;;;;3.43;2.57;;;;;;;16.76;73.20;96643.09;5055749;28;20215;-49
2022/06/15 00:47:26;;;;;;;3.03;2.58;;;;;;;16.83;71.66;96639.53;5055930;28;20257;-49
2022/06/15 00:49:56;;;;;;;2.77;2.53;;;;;;;16.70;73.63;96636.66;5055039;28;20707;-49
2022/06/15 00:52:32;;;;;;;2.63;2.42;;;;;;;16.73;72.85;96641.63;5055308;28;20269;-50
2022/06/15 00:55:01;;;;;;;5.40;2.75;;;;;;;16.63;74.37;96635.72;5074665;28;20225;-49
2022/06/15 00:57:29;;;;;;;3.65;2.47;;;;;;;16.66;73.69;96638.03;5075610;28;20210;-50
2022/06/15 00:59:57;;;;;;;3.20;2.75;;;;;;;16.70;73.25;96636.66;5058020;28;20271;-49
2022/06/15 01:02:24;;;;;;;3.08;2.50;;;;;;;16.66;72.43;96645.19;5063308;28;20600;-50
2022/06/15 01:04:54;;;;;;;3.30;2.40;;;;;;;16.59;73.91;96639.75;5041951;28;20203;-49
2022/06/15 01:07:33;;;;;;;4.07;2.78;;;;;;;16.66;72.30;96643.38;5055594;28;20289;-50
2022/06/15 01:10:08;;;;;;;4.35;2.88;;;;;;;16.57;73.03;96640.94;5055058;28;20604;-49
2022/06/15 01:12:43;;;;;;;2.75;2.50;;;;;;;16.52;73.05;96640.63;5055240;28;20285;-49
2022/06/15 01:15:21;;;;;;;4.00;3.03;;;;;;;16.53;72.81;96640.44;5055253;28;20540;-50
2022/06/15 01:17:56;;;;;;;3.35;2.53;;;;;;;16.54;73.74;96639.44;5055269;28;20286;-48
2022/06/15 01:20:38;;;;;;;3.60;2.60;;;;;;;16.49;74.07;96633.81;5054942;28;20708;-49
2022/06/15 01:23:26;;;;;;;5.30;2.72;;;;;;;16.49;73.39;96636.47;5055164;28;20203;-49
2022/06/15 01:26:11;;;;;;;3.35;2.90;;;;;;;16.58;72.89;96629.28;5054943;28;20199;-50
2022/06/15 01:28:41;;;;;;;2.70;2.50;;;;;;;16.58;73.48;96630.06;5054636;28;20297;-50
2022/06/15 01:31:22;;;;;;;4.67;2.90;;;;;;;16.63;71.64;96627.72;5055284;28;20286;-49
2022/06/15 01:34:05;;;;;;;2.90;2.60;;;;;;;16.48;73.08;96629.47;5054795;28;20310;-49
2022/06/15 01:36:39;;;;;;;4.38;2.20;;;;;;;16.48;73.12;96629.47;5054958;28;20217;-49
2022/06/15 01:39:11;;;;;;;3.17;2.88;;;;;;;16.50;72.82;96624.78;5054898;28;20210;-49
2022/06/15 01:41:45;;;;;;;2.97;2.78;;;;;;;16.40;75.33;96629.56;5070504;28;20297;-50
2022/06/15 01:44:16;;;;;;;2.93;2.50;;;;;;;16.40;74.43;96626.88;5074924;28;20256;-49
2022/06/15 01:46:45;;;;;;;2.90;2.60;;;;;;;16.49;72.58;96625.81;5057104;28;20242;-49
2022/06/15 01:49:20;;;;;;;4.18;2.80;;;;;;;16.43;73.29;96631.88;5054904;28;20222;-48
2022/06/15 01:51:47;;;;;;;4.43;2.70;;;;;;;16.41;73.15;96634.69;5054197;28;20523;-49
2022/06/15 01:54:17;;;;;;;2.50;2.40;;;;;;;16.43;73.42;96635.38;5054427;28;20268;-50
2022/06/15 01:56:47;;;;;;;4.23;2.77;;;;;;;16.40;73.70;96635.69;5054418;28;20719;-49
2022/06/15 01:59:19;;;;;;;2.70;2.50;;;;;;;16.40;74.29;96638.38;5056878;28;20350;-50
2022/06/15 02:01:51;;;;;;;3.00;2.70;;;;;;;16.35;75.37;96640.75;5062238;28;20206;-49
2022/06/15 02:04:27;;;;;;;2.97;2.70;;;;;;;16.34;76.91;96643.59;5074426;28;20202;-49
2022/06/15 02:07:01;;;;;;;3.50;2.80;;;;;;;16.44;75.30;96645.00;5075691;28;20288;-50
2022/06/15 02:09:34;;;;;;;3.60;2.75;;;;;;;16.46;73.94;96641.34;5075978;28;20202;-49
2022/06/15 02:12:02;;;;;;;3.27;2.47;;;;;;;16.40;75.92;96642.91;5074672;28;20289;-50
2022/06/15 02:14:33;;;;;;;2.97;2.77;;;;;;;16.46;74.30;96625.31;5074059;28;20320;-49
2022/06/15 02:17:06;;;;;;;3.60;2.50;;;;;;;16.52;73.28;96624.59;5061698;28;20609;-50
2022/06/15 02:19:36;;;;;;;3.03;2.77;;;;;;;16.41;74.62;96623.19;5042140;28;20607;-49
2022/06/15 02:22:05;;;;;;;3.43;2.67;;;;;;;16.39;76.67;96623.38;5053913;28;20207;-50
2022/06/15 02:24:34;;;;;;;2.47;2.27;;;;;;;16.38;76.79;96623.56;5054867;28;20265;-49
2022/06/15 02:27:01;;;;;;;3.87;2.73;;;;;;;16.38;77.31;96626.22;5054812;28;20286;-49
2022/06/15 02:29:29;;;;;;;3.23;2.93;;;;;;;16.45;76.57;96627.16;5054423;28;20298;-50
2022/06/15 02:31:56;;;;;;;4.80;3.13;;;;;;;16.46;76.50;96625.31;5054067;28;20242;-50
2022/06/15 02:34:25;;;;;;;2.73;2.53;;;;;;;16.43;75.83;96632.69;5054044;28;20301;-50
2022/06/15 02:36:52;;;;;;;2.70;2.30;;;;;;;16.41;76.50;96625.84;5057713;28;20222;-50
2022/06/15 02:39:19;;;;;;;2.97;2.77;;;;;;;16.40;78.03;96621.56;5058011;28;20655;-50
2022/06/15 02:41:45;;;;;;;3.10;2.60;;;;;;;16.52;76.27;96625.44;5058050;28;20230;-49
2022/06/15 02:44:16;;;;;;;4.03;2.80;;;;;;;16.46;77.40;96626.16;5067363;28;20267;-49
2022/06/15 02:46:45;;;;;;;3.27;2.80;;;;;;;16.44;80.37;96623.66;5077301;28;20329;-50
2022/06/15 02:49:12;;;;;;;3.00;2.80;;;;;;;16.46;80.82;96626.16;5078208;28;20297;-50
2022/06/15 02:51:45;;;;;;;3.63;2.87;;;;;;;16.46;80.86;96633.34;5077642;28;20297;-50
2022/06/15 02:54:21;;;;;;;3.43;2.87;;;;;;;16.42;82.95;96631.03;5078123;28;20219;-50
2022/06/15 02:56:47;;;;;;;4.00;2.77;;;;;;;16.33;83.04;96628.63;5079781;28;20205;-49
2022/06/15 02:59:14;;;;;;;3.70;3.10;;;;;;;16.33;84.04;96631.28;5078158;28;20218;-50
2022/06/15 03:01:41;;;;;;;4.03;2.97;;;;;;;16.30;84.61;96621.78;5071645;28;20206;-49
2022/06/15 03:04:08;;;;;;;4.23;2.80;;;;;;;16.30;85.35;96616.44;5057884;28;20199;-50
2022/06/15 03:06:34;;;;;;;4.23;3.00;;;;;;;16.28;85.54;96629.16;5057702;28;20222;-49
2022/06/15 03:09:05;;;;;;;4.55;3.03;;;;;;;16.38;82.57;96628.88;5057737;28;20294;-49
2022/06/15 03:11:33;;;;;;;3.20;3.00;;;;;;;16.33;82.98;96626.75;5056977;28;20199;-49
2022/06/15 03:14:00;;;;;;;4.27;3.07;;;;;;;16.27;84.52;96632.81;5057183;28;20317;-49
2022/06/15 03:16:27;;;;;;;3.03;2.83;;;;;;;16.26;83.11;96638.34;5081814;28;20218;-50
2022/06/15 03:18:53;;;;;;;4.20;3.20;;;;;;;16.24;83.41;96632.34;5093401;28;20189;-49
2022/06/15 03:21:20;;;;;;;3.70;2.70;;;;;;;16.20;84.78;96625.69;5056400;28;20203;-50
2022/06/15 03:23:46;;;;;;;6.82;3.50;;;;;;;16.26;84.44;96627.66;5057460;28;20733;-48
2022/06/15 03:26:14;;;;;;;3.07;2.77;;;;;;;16.31;82.75;96633.28;5057809;28;20210;-49
2022/06/15 03:28:41;;;;;;;3.40;2.90;;;;;;;16.25;84.39;96637.50;5057242;28;20659;-49
2022/06/15 03:31:09;;;;;;;4.03;3.23;;;;;;;16.20;85.04;96631.03;5057390;28;20598;-50
2022/06/15 03:33:35;;;;;;;4.35;3.15;;;;;;;16.16;86.08;96624.38;5056774;28;20738;-49
2022/06/15 03:36:03;;;;;;;2.67;2.50;;;;;;;16.17;85.40;96616.22;5057339;28;20239;-50
2022/06/15 03:38:31;;;;;;;3.47;2.97;;;;;;;16.23;86.36;96620.00;5056890;28;20647;-49
2022/06/15 03:40:59;;;;;;;3.27;2.83;;;;;;;16.26;85.30;96614.31;5056237;28;20550;-49
2022/06/15 03:43:27;;;;;;;3.10;2.80;;;;;;;16.30;83.77;96621.78;5056703;28;20635;-49
2022/06/15 03:45:55;;;;;;;3.00;2.80;;;;;;;16.36;84.94;96625.59;5056721;28;20321;-50
2022/06/15 03:48:22;;;;;;;4.43;3.00;;;;;;;16.38;84.64;96619.03;5055740;28;20206;-48
2022/06/15 03:50:49;;;;;;;4.57;3.23;;;;;;;16.44;84.52;96625.50;5057135;28;20207;-50
2022/06/15 03:53:15;;;;;;;3.13;2.88;;;;;;;16.42;83.64;96622.19;5056985;28;20583;-50
2022/06/15 03:55:43;;;;;;;3.17;2.90;;;;;;;16.44;84.16;96615.66;5056650;28;20227;-50
2022/06/15 03:58:13;;;;;;;3.60;3.30;;;;;;;16.47;84.32;96625.16;5056692;28;20211;-50
2022/06/15 04:00:42;;;;;;;3.40;3.10;;;;;;;16.44;85.24;96622.81;5069743;28;20707;-49
2022/06/15 04:03:08;;;;;;;4.13;3.20;;;;;;;16.43;85.37;96626.53;5063751;28;20206;-50
2022/06/15 04:05:39;;;;;;;3.05;2.85;;;;;;;16.49;84.95;96625.81;5076606;28;20630;-50
2022/06/15 04:10:51;;;;;;;3.60;3.30;;;;;;;16.46;84.79;96636.84;5076284;28;20649;-48
2022/06/15 04:13:21;;;;;;;5.22;3.88;;;;;;;16.47;84.99;96641.19;5076200;28;20206;-50
2022/06/15 04:15:49;;;;;;;4.60;3.30;;;;;;;16.47;86.56;96641.19;5080397;28;20601;-50
2022/06/15 04:18:15;;;;;;;3.30;2.97;;;;;;;16.43;86.68;96642.53;5061464;28;20626;-49
2022/06/15 04:20:42;;;;;;;3.67;3.30;;;;;;;16.43;86.45;96642.53;5059796;28;20207;-49
2022/06/15 04:23:12;;;;;;;3.80;3.50;;;;;;;16.44;86.53;96638.84;5056763;28;20290;-49
2022/06/15 04:25:42;;;;;;;3.40;3.10;;;;;;;16.72;84.32;96637.28;5056038;28;20203;-48
2022/06/15 04:28:11;;;;;;;3.30;3.00;;;;;;;16.98;83.38;96626.19;5056003;28;20604;-48
2022/06/15 04:30:38;;;;;;;3.33;3.08;;;;;;;17.26;80.59;96634.41;5055916;28;20207;-49
2022/06/15 04:33:06;;;;;;;3.17;2.90;;;;;;;17.44;79.03;96626.81;5055940;28;20306;-49
2022/06/15 04:35:33;;;;;;;4.78;3.10;;;;;;;17.41;80.57;96613.84;5055550;28;20556;-49
2022/06/15 04:38:00;;;;;;;4.55;3.08;;;;;;;17.44;81.30;96626.81;5055920;28;20237;-49
2022/06/15 04:40:26;;;;;;;3.58;2.78;;;;;;;17.40;81.91;96628.22;5055594;28;20696;-49
2022/06/15 04:42:53;;;;;;;3.95;3.65;;;;;;;17.36;81.54;96627.75;5055783;28;20627;-49
2022/06/15 04:45:20;;;;;;;7.38;6.65;;;;;;;17.41;80.18;96638.72;5055514;28;20333;-49
2022/06/15 04:47:46;;;;;;;4.20;3.80;;;;;;;17.53;81.21;96631.06;5055788;28;20202;-50
2022/06/15 04:50:15;;;;;;;3.50;3.20;;;;;;;17.84;79.12;96631.69;5055638;28;20211;-49
2022/06/15 04:52:46;;;;;;;6.88;3.30;;;;;;;18.13;74.64;96629.94;5055793;28;20202;-49
2022/06/15 04:55:18;;;;;;;3.40;3.10;;;;;;;18.38;74.08;96633.91;5055574;28;20226;-50
2022/06/15 04:57:45;;;;;;;3.78;3.20;;;;;;;18.58;72.50;96637.63;5055639;28;20260;-49
2022/06/15 05:00:15;;;;;;;3.63;3.33;;;;;;;18.56;70.05;96634.31;5055004;28;20207;-49
2022/06/15 05:02:41;;;;;;;3.78;3.53;;;;;;;18.40;71.43;96638.03;5055596;28;20199;-51
2022/06/15 05:05:11;;;;;;;3.80;3.50;;;;;;;18.18;73.87;96641.72;5055961;28;20207;-49
2022/06/15 05:07:40;;;;;;;5.45;3.80;;;;;;;18.15;74.66;96647.47;5054340;28;20207;-50
2022/06/15 05:10:08;;;;;;;4.72;3.70;;;;;;;18.16;75.53;96649.13;5055847;28;20219;-55
2022/06/15 05:12:35;;;;;;;4.93;4.45;;;;;;;18.34;73.17;96646.84;5054915;28;20270;-49
2022/06/15 05:15:01;;;;;;;4.03;3.40;;;;;;;18.47;70.28;96645.28;5055253;28;20534;-49
2022/06/15 05:17:28;;;;;;;4.75;3.70;;;;;;;18.59;70.41;96651.84;5055283;28;20290;-49
2022/06/15 05:19:56;;;;;;;4.35;3.45;;;;;;;18.85;71.62;96655.56;5056095;28;20226;-49
2022/06/15 05:22:25;;;;;;;4.20;3.75;;;;;;;19.03;70.31;96657.75;5058443;28;20203;-50
2022/06/15 05:24:56;;;;;;;4.35;3.65;;;;;;;19.04;68.39;96659.41;5070931;28;20210;-50
2022/06/15 05:27:22;;;;;;;5.50;3.63;;;;;;;19.33;70.21;96656.53;5054387;28;20286;-49
2022/06/15 05:29:51;;;;;;;7.70;3.50;;;;;;;19.56;66.67;96656.25;5055096;28;20298;-50
2022/06/15 05:32:20;;;;;;;4.35;3.67;;;;;;;19.70;64.67;96647.25;5055221;28;20292;-50
2022/06/15 05:34:47;;;;;;;5.00;3.72;;;;;;;19.87;64.60;96656.59;5055215;28;20233;-49
2022/06/15 05:37:13;;;;;;;9.30;4.50;;;;;;;19.86;65.84;96657.66;5060965;28;20293;-48
2022/06/15 05:39:42;;;;;;;29.38;6.70;;;;;;;19.66;65.82;96655.91;5075219;28;20293;-50
2022/06/15 05:42:11;;;;;;;48.83;9.70;;;;;;;19.47;65.95;96657.47;5074802;28;20214;-50
2022/06/15 05:44:47;;;;;;;39.90;8.80;;;;;;;19.51;67.07;96661.41;5075294;28;20206;-51
2022/06/15 05:47:14;;;;;;;35.42;7.38;;;;;;;19.45;65.85;96662.19;5075229;28;20209;-50
2022/06/15 05:49:41;;;;;;;126.00;19.98;;;;;;;19.66;65.37;96653.22;5075195;28;20301;-49
2022/06/15 05:52:08;;;;;;;16.50;5.47;;;;;;;19.85;65.37;96666.72;5075512;28;20206;-49
2022/06/15 05:54:35;;;;;;;13.88;5.13;;;;;;;19.97;64.56;96666.16;5075400;28;20301;-49
2022/06/15 05:57:02;;;;;;;8.77;4.32;;;;;;;20.03;63.91;96665.34;5075145;28;20213;-50
2022/06/15 05:59:31;;;;;;;13.20;3.90;;;;;;;19.94;65.59;96666.56;5075444;28;20210;-51
2022/06/15 06:01:57;;;;;;;4.70;3.95;;;;;;;19.97;64.43;96664.31;5066202;28;20209;-49
2022/06/15 06:04:24;;;;;;;4.60;3.85;;;;;;;20.16;64.19;96668.06;5071311;28;20420;-49
2022/06/15 06:06:50;;;;;;;3.70;3.40;;;;;;;20.16;62.19;96670.75;5075637;28;20631;-49
2022/06/15 06:09:20;;;;;;;6.82;4.00;;;;;;;19.99;63.29;96670.28;5075714;28;20238;-49
2022/06/15 06:11:47;;;;;;;4.90;3.63;;;;;;;20.01;63.28;96678.16;5079581;28;20220;-51
2022/06/15 06:14:15;;;;;;;7.95;4.00;;;;;;;20.00;62.97;96665.75;5080195;28;20639;-49
2022/06/15 06:16:43;;;;;;;11.30;4.97;;;;;;;19.93;64.14;96665.72;5080644;28;20241;-51
2022/06/15 06:19:09;;;;;;;14.55;4.28;;;;;;;20.31;67.46;96668.75;5077301;28;20221;-50
2022/06/15 06:21:36;;;;;;;11.32;4.07;;;;;;;20.81;65.06;96670.91;5062181;28;20207;-50
2022/06/15 06:24:03;;;;;;;5.28;3.42;;;;;;;21.19;61.03;96673.81;5063215;28;20712;-50
2022/06/15 06:26:31;;;;;;;5.25;3.75;;;;;;;21.67;58.98;96668.97;5074288;28;20222;-50
2022/06/15 06:29:00;;;;;;;4.13;3.63;;;;;;;22.06;58.13;96669.91;5081764;28;20206;-50
2022/06/15 06:31:28;;;;;;;8.35;3.47;;;;;;;22.41;57.56;96676.56;5079903;28;20183;-49
2022/06/15 06:33:56;;;;;;;5.93;3.55;;;;;;;22.65;56.93;96673.09;5077178;28;20217;-50
2022/06/15 06:36:28;;;;;;;4.47;3.75;;;;;;;22.95;55.72;96676.03;5077267;28;20285;-50
2022/06/15 06:38:55;;;;;;;4.40;3.20;;;;;;;23.33;55.82;96672.34;5080384;28;20187;-50
2022/06/15 06:41:24;;;;;;;3.85;3.42;;;;;;;23.55;54.50;96681.72;5073008;28;20231;-50
2022/06/15 06:43:51;;;;;;;4.35;3.58;;;;;;;23.76;54.22;96676.72;5082024;28;20183;-51
2022/06/15 06:46:18;;;;;;;4.88;3.40;;;;;;;24.03;53.47;96679.09;5080794;28;20259;-50
2022/06/15 06:48:45;;;;;;;27.13;6.45;;;;;;;24.28;55.00;96680.69;5079474;28;20194;-49
2022/06/15 06:51:14;;;;;;;9.02;4.38;;;;;;;24.50;54.00;96678.31;5057265;28;20207;-49
2022/06/15 06:53:40;;;;;;;18.65;5.75;;;;;;;24.59;53.53;96684.19;5058175;28;20294;-50
2022/06/15 06:56:09;;;;;;;74.03;13.43;;;;;;;24.80;52.59;96686.38;5057922;28;20565;-49
2022/06/15 06:58:38;;;;;;;13.88;4.93;;;;;;;24.90;51.41;96681.28;5057675;28;20298;-48
2022/06/15 07:01:05;;;;;;;7.05;4.55;;;;;;;25.08;50.13;96683.88;5057974;28;20222;-49
2022/06/15 07:03:32;;;;;;;66.45;10.55;;;;;;;25.29;51.42;96682.53;5058057;28;20203;-50
2022/06/15 07:06:03;;;;;;;11.32;4.43;;;;;;;25.50;50.36;96687.38;5059690;28;20207;-50
2022/06/15 07:08:32;;;;;;;9.82;4.38;;;;;;;25.19;50.24;96676.84;5077914;28;20202;-52
2022/06/15 07:10:58;;;;;;;5.90;4.22;;;;;;;25.48;48.71;96681.34;5077799;28;20214;-50
2022/06/15 07:13:26;;;;;;;5.40;3.90;;;;;;;25.58;48.99;96678.06;5078054;28;20217;-52
2022/06/15 07:15:52;;;;;;;6.60;4.30;;;;;;;25.70;49.82;96676.19;5077345;28;20232;-54
2022/06/15 07:18:19;;;;;;;6.05;4.03;;;;;;;25.90;47.97;96681.25;5077701;28;20213;-52
2022/06/15 07:20:46;;;;;;;5.00;3.92;;;;;;;26.15;47.30;96692.59;5046338;28;20199;-52
2022/06/15 07:23:12;;;;;;;4.50;3.75;;;;;;;26.09;45.91;96682.72;5056814;28;20581;-53
2022/06/15 07:25:44;;;;;;;6.88;3.95;;;;;;;26.31;48.20;96674.78;5058365;28;20199;-52
2022/06/15 07:28:15;;;;;;;6.38;4.38;;;;;;;26.13;49.90;96675.75;5059654;28;20596;-53
2022/06/15 07:30:41;;;;;;;5.03;3.80;;;;;;;25.88;49.13;96678.75;5057716;28;20221;-53
2022/06/15 07:33:08;;;;;;;7.10;3.53;;;;;;;26.05;48.71;96684.25;5057874;28;20211;-52
2022/06/15 07:35:38;;;;;;;5.53;4.05;;;;;;;26.31;47.71;96694.59;5057501;28;20222;-52
2022/06/15 07:38:05;;;;;;;5.70;3.55;;;;;;;26.07;49.75;96684.84;5057685;28;20291;-52
2022/06/15 07:40:33;;;;;;;6.88;3.70;;;;;;;26.61;45.51;96691.63;5056285;28;20219;-53
2022/06/15 07:43:01;;;;;;;8.00;3.70;;;;;;;26.73;48.97;96693.25;5057308;28;20215;-52
2022/06/15 07:45:30;;;;;;;4.97;3.47;;;;;;;26.80;46.39;96689.53;5056805;28;20235;-53
2022/06/15 07:50:43;;;;;;;4.70;3.47;;;;;;;27.09;46.31;96681.16;5057210;28;20226;-51
2022/06/15 07:53:12;;;;;;;6.00;3.50;;;;;;;27.22;48.17;96685.44;5056989;28;20207;-50
2022/06/15 07:55:43;;;;;;;9.82;4.03;;;;;;;27.55;47.81;96693.59;5057002;28;20317;-50
2022/06/15 07:58:11;;;;;;;5.93;3.70;;;;;;;27.56;47.59;96684.34;5055609;28;20210;-50
2022/06/15 08:00:39;;;;;;;7.28;3.70;;;;;;;27.66;45.00;96689.97;5057540;28;20309;-50
2022/06/15 08:03:06;;;;;;;5.47;3.72;;;;;;;27.64;46.18;96691.25;5056380;28;20639;-49
2022/06/15 08:05:38;;;;;;;6.93;3.75;;;;;;;27.87;47.73;96684.81;5057683;28;20219;-50
2022/06/15 08:08:08;;;;;;;7.68;3.53;;;;;;;28.27;46.57;96687.28;5075527;28;20657;-51
2022/06/15 08:10:36;;;;;;;6.30;3.58;;;;;;;28.40;45.57;96686.88;5077787;28;20234;-50
2022/06/15 08:13:04;;;;;;;4.78;3.92;;;;;;;28.23;45.49;96692.41;5076239;28;20207;-49
2022/06/15 08:15:32;;;;;;;7.53;3.63;;;;;;;28.49;44.65;96690.78;5074652;28;20800;-51
2022/06/15 08:18:01;;;;;;;4.88;3.25;;;;;;;28.47;45.13;96691.06;5076165;28;20218;-51
2022/06/15 08:20:35;;;;;;;3.47;3.17;;;;;;;28.86;44.50;96690.94;5047676;28;20234;-50
2022/06/15 08:23:05;;;;;;;3.88;3.58;;;;;;;28.91;43.42;96682.84;5056214;28;20645;-50
2022/06/15 08:25:37;;;;;;;4.38;3.53;;;;;;;28.69;43.90;96684.78;5055014;28;20203;-49
2022/06/15 08:28:05;;;;;;;3.92;3.40;;;;;;;29.07;44.75;96690.06;5056245;28;20218;-50
2022/06/15 08:30:34;;;;;;;6.10;3.92;;;;;;;28.87;44.93;96687.16;5055914;28;20207;-51
2022/06/15 08:33:01;;;;;;;5.35;3.45;;;;;;;28.93;45.13;96681.50;5055833;28;20214;-49
2022/06/15 08:35:27;;;;;;;5.10;3.72;;;;;;;29.01;43.90;96682.94;5055970;28;20568;-50
2022/06/15 08:37:54;;;;;;;5.50;3.42;;;;;;;28.87;43.69;96681.72;5055879;28;20222;-50
2022/06/15 08:40:23;;;;;;;5.45;3.47;;;;;;;28.95;44.64;96684.75;5055880;28;20211;-50
2022/06/15 08:42:56;;;;;;;5.53;3.50;;;;;;;29.02;44.67;96681.81;5055680;28;20206;-51
2022/06/15 08:45:26;;;;;;;5.45;3.50;;;;;;;29.07;44.17;96687.34;5055351;28;20234;-49
2022/06/15 08:48:31;;;;;;;8.13;3.95;;;;;;;29.47;42.93;96682.25;5055300;28;20290;-51
2022/06/15 08:51:02;;;;;;;5.55;3.33;;;;;;;29.91;43.72;96684.72;5047201;28;20606;-50
2022/06/15 08:53:34;;;;;;;3.65;3.35;;;;;;;29.97;43.21;96686.44;5061162;28;20297;-50
2022/06/15 08:56:04;;;;;;;7.13;3.85;;;;;;;30.05;44.63;96685.91;5075796;28;20218;-50
2022/06/15 08:58:40;;;;;;;8.13;3.83;;;;;;;30.04;41.72;96684.28;5075239;28;20626;-50
2022/06/15 09:01:13;;;;;;;5.60;3.50;;;;;;;30.19;42.33;96673.41;5073603;28;20725;-51
2022/06/15 09:03:44;;;;;;;7.38;3.30;;;;;;;30.49;40.98;96686.41;5064742;28;20205;-50
2022/06/15 09:06:27;;;;;;;4.10;3.25;;;;;;;30.27;41.50;96678.38;5074982;28;20206;-50
2022/06/15 09:09:12;;;;;;;7.68;3.20;;;;;;;30.20;42.89;96688.72;5075172;28;20289;-51
2022/06/15 09:11:51;;;;;;;5.63;3.53;;;;;;;30.12;43.55;96689.22;5075296;28;20218;-50
2022/06/15 09:14:28;;;;;;;4.00;3.45;;;;;;;30.14;42.54;96678.88;5075119;28;20213;-50
2022/06/15 09:16:59;;;;;;;4.40;3.70;;;;;;;30.24;43.49;96678.91;5075031;28;20305;-50
2022/06/15 09:19:29;;;;;;;3.80;3.40;;;;;;;29.99;41.25;96676.06;5054631;28;20632;-51
2022/06/15 09:22:01;;;;;;;6.78;3.40;;;;;;;30.13;42.22;96679.94;5054166;28;20647;-52
2022/06/15 09:24:32;;;;;;;4.32;3.53;;;;;;;30.45;41.44;96672.47;5055018;28;20535;-50
2022/06/15 09:27:02;;;;;;;5.18;3.10;;;;;;;30.88;40.52;96681.31;5054857;28;20291;-51
2022/06/15 09:29:34;;;;;;;3.55;2.78;;;;;;;30.94;38.19;96678.31;5055307;28;20210;-51
2022/06/15 09:32:05;;;;;;;5.03;3.30;;;;;;;30.86;40.07;96672.56;5055095;28;20329;-50
2022/06/15 09:34:35;;;;;;;4.32;3.25;;;;;;;30.99;43.42;96677.53;5054829;28;20207;-52
2022/06/15 09:37:05;;;;;;;3.53;3.22;;;;;;;31.23;41.52;96684.13;5055124;28;20350;-50
2022/06/15 09:39:32;;;;;;;6.63;3.53;;;;;;;31.29;39.43;96674.00;5055472;28;20208;-50
2022/06/15 09:42:05;;;;;;;6.63;3.38;;;;;;;31.34;39.93;96669.38;5054813;28;20210;-49
2022/06/15 09:44:40;;;;;;;3.38;3.08;;;;;;;31.51;39.39;96667.19;5054680;28;20567;-49
2022/06/15 09:47:15;;;;;;;3.33;3.03;;;;;;;31.40;38.60;96668.25;5054226;28;20291;-49
2022/06/15 09:49:52;;;;;;;5.63;3.45;;;;;;;31.11;40.11;96669.88;5054494;28;20301;-50
2022/06/15 09:52:27;;;;;;;5.40;3.40;;;;;;;31.37;39.86;96657.88;5054718;28;20254;-50
2022/06/15 09:55:06;;;;;;;3.28;2.83;;;;;;;31.76;39.44;96668.25;5054735;28;20687;-50
2022/06/15 09:57:35;;;;;;;5.18;3.22;;;;;;;31.38;38.47;96659.53;5054555;28;20215;-49
2022/06/15 10:00:03;;;;;;;3.03;2.83;;;;;;;31.47;40.66;96660.59;5054763;28;20222;-50
2022/06/15 10:02:32;;;;;;;2.92;2.72;;;;;;;31.82;40.13;96667.13;5054406;28;20673;-49
2022/06/15 10:05:01;;;;;;;3.20;2.58;;;;;;;32.03;37.45;96663.22;5054820;28;20211;-49
2022/06/15 10:07:33;;;;;;;2.70;2.40;;;;;;;31.98;33.69;96661.34;5055104;28;20294;-49
2022/06/15 10:10:17;;;;;;;2.67;2.47;;;;;;;31.93;32.92;96660.53;5055082;28;20203;-50
2022/06/15 10:12:59;;;;;;;2.88;2.53;;;;;;;31.86;34.40;96663.56;5057095;28;20321;-50
2022/06/15 10:15:33;;;;;;;2.85;2.20;;;;;;;32.12;36.30;96658.88;5074935;28;20206;-51
2022/06/15 10:18:15;;;;;;;6.25;2.30;;;;;;;32.15;36.48;96661.06;5054972;28;20218;-50
2022/06/15 10:20:42;;;;;;;2.40;2.20;;;;;;;32.27;35.61;96655.25;5054250;28;20229;-49
2022/06/15 10:23:20;;;;;;;2.75;2.47;;;;;;;32.41;34.11;96662.59;5055110;28;20203;-50
2022/06/15 10:25:53;;;;;;;2.83;2.50;;;;;;;32.50;32.13;96666.38;5054826;28;20583;-49
2022/06/15 10:28:24;;;;;;;4.25;2.05;;;;;;;32.26;32.06;96665.38;5054750;28;20289;-49
2022/06/15 10:30:54;;;;;;;2.95;2.17;;;;;;;31.84;35.61;96660.31;5054630;28;20310;-48
2022/06/15 10:33:21;;;;;;;3.88;2.20;;;;;;;31.78;34.79;96666.06;5054701;28;20298;-48
2022/06/15 10:35:55;;;;;;;3.85;3.53;;;;;;;31.72;36.76;96648.00;5055116;28;20214;-52
2022/06/15 10:38:25;;;;;;;3.10;2.90;;;;;;;31.93;34.74;96644.13;5055002;28;20191;-50
2022/06/15 10:41:45;;;;;;;6.60;2.47;;;;;;;31.93;34.55;96653.16;5054794;28;20214;-49
2022/06/15 10:43:46;;;;;;;2.13;1.95;;;;;;;31.96;35.76;96655.31;5054098;28;20207;-49
2022/06/15 10:46:12;;;;;;;2.45;2.25;;;;;;;31.64;33.35;96651.31;5053665;28;20297;-50
2022/06/15 10:48:44;;;;;;;2.47;2.28;;;;;;;31.89;34.42;96651.25;5054269;28;20360;-49
2022/06/15 10:51:14;;;;;;;4.18;2.70;;;;;;;31.79;31.71;96645.81;5054531;28;20294;-49
2022/06/15 10:53:44;;;;;;;2.13;2.00;;;;;;;31.67;31.95;96639.84;5053275;28;20211;-49
2022/06/15 11:02:28;;;;;;;4.60;2.00;;;;;;;31.90;34.18;96631.81;5069385;28;20548;-49
2022/06/15 11:04:58;;;;;;;5.63;2.63;;;;;;;32.13;33.27;96627.69;5075126;28;20217;-51
2022/06/15 11:07:35;;;;;;;2.20;1.90;;;;;;;32.37;31.58;96628.66;5076731;28;20225;-48
2022/06/15 11:10:13;;;;;;;3.00;2.40;;;;;;;32.25;30.99;96630.91;5069858;28;20234;-49
2022/06/15 11:12:43;;;;;;;3.25;2.45;;;;;;;32.11;33.32;96620.84;5057861;28;20231;-49
2022/06/15 11:18:01;;;;;;;2.63;2.42;;;;;;;32.31;34.19;96623.50;5058356;28;20298;-50
2022/06/15 11:18:22;;;;;;;3.47;2.20;;;;;;;32.43;31.70;96629.44;5058310;28;20503;-50
2022/06/15 11:20:52;;;;;;;2.30;2.10;;;;;;;32.43;32.68;96619.31;5057923;28;20212;-48
2022/06/15 11:23:26;;;;;;;2.60;2.00;;;;;;;32.41;33.18;96628.91;5057491;28;20298;-50
2022/06/15 11:25:57;;;;;;;3.10;2.30;;;;;;;32.27;31.34;96631.44;5058066;28;20214;-51
2022/06/15 11:28:26;;;;;;;2.20;2.10;;;;;;;32.33;31.86;96624.84;5059156;28;20286;-49
2022/06/15 11:30:58;;;;;;;2.30;2.10;;;;;;;32.33;34.10;96622.09;5057975;28;20683;-49
2022/06/15 11:33:30;;;;;;;3.13;2.33;;;;;;;32.09;31.92;96625.78;5057254;28;20203;-49
2022/06/15 11:36:04;;;;;;;6.63;2.88;;;;;;;32.33;33.17;96616.63;5057923;28;20294;-50
2022/06/15 11:38:39;;;;;;;2.33;2.20;;;;;;;32.59;36.50;96616.53;5073381;28;20215;-50
2022/06/15 11:41:17;;;;;;;4.03;2.70;;;;;;;32.52;35.28;96616.81;5077647;28;20554;-50
2022/06/15 11:43:45;;;;;;;2.70;2.42;;;;;;;32.78;33.41;96628.44;5077443;28;20293;-52
2022/06/15 11:46:21;;;;;;;2.45;2.30;;;;;;;32.87;32.38;96624.81;5065212;28;20323;-50
2022/06/15 11:49:02;;;;;;;5.03;2.60;;;;;;;32.98;35.02;96617.34;5057608;28;20210;-50
2022/06/15 11:51:40;;;;;;;4.70;2.55;;;;;;;32.71;33.90;96620.53;5058391;28;20268;-50
2022/06/15 11:54:17;;;;;;;13.77;3.65;;;;;;;32.86;34.54;96616.88;5057417;28;20210;-48
2022/06/15 11:56:50;;;;;;;5.65;2.60;;;;;;;32.93;33.53;96617.38;5057870;28;20323;-50